Time;durP1;ratioP1;P1;durP2;ratioP2;P2;SDS_P1;SDS_P2;PMS_P1;PMS_P2;Temp;Humidity;BMP_temperature;BMP_pressure;BME280_temperature;BME280_humidity;BME280_pressure;Samples;Min_cycle;Max_cycle;Signal;HPM_P1;HPM_P2
2022/05/11 00:01:16;;;;;;;11.40;7.55;;;12.60;83.30;;;;;;5043719;28;20040;-50
2022/05/11 00:03:46;;;;;;;12.77;7.03;;;12.60;83.10;;;;;;5040292;28;20025;-50
2022/05/11 00:06:12;;;;;;;8.60;5.90;;;12.60;82.90;;;;;;5051319;28;20055;-46
2022/05/11 00:08:39;;;;;;;11.95;6.30;;;12.60;83.20;;;;;;5049766;28;20041;-45
2022/05/11 00:11:06;;;;;;;10.43;5.90;;;12.60;83.00;;;;;;5051114;28;20024;-49
2022/05/11 00:13:33;;;;;;;9.43;5.90;;;12.60;82.80;;;;;;5011060;28;20026;-48
2022/05/11 00:16:00;;;;;;;8.55;6.25;;;12.60;82.50;;;;;;5028794;28;20033;-47
2022/05/11 00:18:27;;;;;;;10.27;6.32;;;12.60;82.40;;;;;;5042630;28;20021;-49
2022/05/11 00:20:59;;;;;;;8.85;5.43;;;12.60;82.30;;;;;;5033313;28;20079;-45
2022/05/11 00:23:26;;;;;;;7.72;6.65;;;12.60;82.10;;;;;;5050703;28;20055;-45
2022/05/11 00:25:53;;;;;;;8.13;5.55;;;12.60;82.20;;;;;;5033694;28;20112;-46
2022/05/11 00:28:20;;;;;;;9.35;6.43;;;12.60;82.30;;;;;;5034268;28;20033;-45
2022/05/11 00:30:50;;;;;;;7.82;5.75;;;12.70;82.20;;;;;;5055726;28;20381;-46
2022/05/11 00:33:17;;;;;;;8.63;6.13;;;12.70;82.20;;;;;;5037746;28;20433;-48
2022/05/11 00:35:46;;;;;;;8.77;6.45;;;12.60;82.00;;;;;;5054939;28;20421;-45
2022/05/11 00:38:14;;;;;;;8.37;6.30;;;12.60;81.90;;;;;;5051782;28;20036;-46
2022/05/11 00:40:44;;;;;;;10.35;5.78;;;12.50;82.00;;;;;;5054020;28;20047;-45
2022/05/11 00:43:11;;;;;;;7.70;5.75;;;12.50;81.90;;;;;;5055871;28;20032;-49
2022/05/11 00:45:45;;;;;;;7.13;5.80;;;12.50;81.90;;;;;;5054812;28;20331;-46
2022/05/11 00:51:04;;;;;;;8.02;6.28;;;12.50;81.80;;;;;;5046585;28;20044;-49
2022/05/11 00:53:37;;;;;;;9.18;6.35;;;12.50;81.50;;;;;;5055339;28;20056;-46
2022/05/11 00:56:05;;;;;;;8.68;6.47;;;12.50;81.50;;;;;;5053495;28;20045;-46
2022/05/11 00:58:47;;;;;;;12.13;6.43;;;12.50;81.90;;;;;;5055516;28;20032;-47
2022/05/11 01:01:14;;;;;;;7.57;6.15;;;12.50;82.10;;;;;;5054655;28;20075;-49
2022/05/11 01:04:18;;;;;;;9.63;6.47;;;12.50;82.10;;;;;;5028374;28;20030;-45
2022/05/11 01:06:45;;;;;;;10.77;6.65;;;12.50;82.10;;;;;;5040918;28;20040;-46
2022/05/11 01:09:14;;;;;;;10.50;6.60;;;12.50;82.20;;;;;;5046213;28;20033;-47
2022/05/11 01:11:49;;;;;;;13.15;6.75;;;12.50;82.10;;;;;;5054494;28;20025;-49
2022/05/11 01:14:19;;;;;;;9.23;6.45;;;12.50;82.00;;;;;;5055056;28;20079;-45
2022/05/11 01:16:48;;;;;;;9.13;6.50;;;12.50;82.00;;;;;;5054417;28;20402;-47
2022/05/11 01:19:24;;;;;;;11.65;6.72;;;12.40;81.70;;;;;;5055147;28;20116;-46
2022/05/11 01:22:02;;;;;;;13.18;6.57;;;12.40;81.80;;;;;;5053145;28;20035;-47
2022/05/11 01:24:39;;;;;;;10.25;6.35;;;12.40;81.80;;;;;;5055098;28;20039;-47
2022/05/11 01:27:25;;;;;;;9.55;6.63;;;12.40;81.80;;;;;;5053513;28;20135;-46
2022/05/11 01:29:56;;;;;;;11.13;6.70;;;12.40;82.00;;;;;;5053650;28;20045;-47
2022/05/11 01:32:25;;;;;;;8.63;6.68;;;12.40;81.90;;;;;;5053577;28;20039;-49
2022/05/11 01:35:30;;;;;;;8.20;5.33;;;12.40;81.90;;;;;;5055961;28;20017;-48
2022/05/11 01:38:33;;;;;;;8.48;6.05;;;12.40;81.70;;;;;;5052547;28;20625;-45
2022/05/11 01:41:00;;;;;;;8.85;6.47;;;12.40;81.50;;;;;;5026892;28;20025;-48
2022/05/11 01:43:32;;;;;;;10.25;6.25;;;12.40;81.30;;;;;;5053135;28;20397;-45
2022/05/11 01:45:59;;;;;;;8.32;6.28;;;12.40;81.00;;;;;;5054131;28;20029;-47
2022/05/11 01:48:31;;;;;;;7.78;5.78;;;12.40;81.10;;;;;;5052296;28;20446;-48
2022/05/11 01:50:58;;;;;;;8.35;6.22;;;12.40;81.00;;;;;;5055621;28;20029;-46
2022/05/11 01:53:25;;;;;;;8.18;5.70;;;12.30;81.00;;;;;;5051187;28;20032;-49
2022/05/11 01:55:53;;;;;;;12.60;6.40;;;12.20;81.10;;;;;;5035319;28;20041;-45
2022/05/11 01:58:20;;;;;;;8.15;5.72;;;12.20;81.20;;;;;;5054380;28;20040;-47
2022/05/11 02:00:47;;;;;;;11.40;5.65;;;12.10;81.40;;;;;;5068965;28;20442;-48
2022/05/11 02:03:18;;;;;;;12.50;5.97;;;12.10;81.40;;;;;;5047882;28;20459;-46
2022/05/11 02:08:38;;;;;;;10.30;6.22;;;12.10;81.60;;;;;;5054502;28;20072;-47
2022/05/11 02:11:06;;;;;;;10.07;5.57;;;12.00;81.50;;;;;;5053512;28;20067;-47
2022/05/11 02:13:33;;;;;;;8.63;5.35;;;12.00;81.70;;;;;;5052413;28;20047;-45
2022/05/11 02:16:01;;;;;;;9.15;5.15;;;12.00;81.60;;;;;;5055024;28;20039;-49
2022/05/11 02:18:29;;;;;;;9.13;6.05;;;12.00;81.90;;;;;;5053119;28;20422;-46
2022/05/11 02:20:56;;;;;;;11.65;6.80;;;12.10;81.80;;;;;;5053879;28;20036;-47
2022/05/11 02:23:24;;;;;;;10.45;6.32;;;12.10;81.60;;;;;;5052374;28;20039;-49
2022/05/11 02:25:54;;;;;;;8.75;6.03;;;12.10;81.90;;;;;;5051844;28;20040;-47
2022/05/11 02:28:21;;;;;;;9.20;6.35;;;12.10;81.80;;;;;;5054075;28;20047;-47
2022/05/11 02:30:51;;;;;;;7.47;5.65;;;12.10;81.80;;;;;;5053078;28;20075;-48
2022/05/11 02:33:19;;;;;;;11.32;6.85;;;12.10;81.80;;;;;;5053618;28;20033;-47
2022/05/11 02:35:47;;;;;;;10.80;6.55;;;12.10;81.80;;;;;;5053367;28;20476;-45
2022/05/11 02:38:27;;;;;;;9.85;6.15;;;12.10;82.00;;;;;;5051548;28;20025;-49
2022/05/11 02:40:54;;;;;;;11.27;6.15;;;12.10;82.10;;;;;;5011464;28;20330;-48
2022/05/11 02:43:22;;;;;;;9.48;6.35;;;12.10;82.10;;;;;;5050162;28;20025;-47
2022/05/11 02:45:49;;;;;;;12.20;6.13;;;12.10;82.30;;;;;;5052638;28;20085;-48
2022/05/11 02:48:19;;;;;;;8.95;6.40;;;12.10;82.20;;;;;;5069139;28;20125;-48
2022/05/11 02:50:50;;;;;;;10.40;5.82;;;12.20;82.30;;;;;;5037742;28;20037;-47
2022/05/11 02:53:19;;;;;;;9.38;6.43;;;12.20;82.30;;;;;;5049550;28;20025;-49
2022/05/11 02:55:48;;;;;;;12.10;7.22;;;12.20;82.30;;;;;;5033380;28;20424;-49
2022/05/11 02:58:18;;;;;;;10.85;5.95;;;12.10;82.30;;;;;;5033820;28;20075;-49
2022/05/11 03:00:48;;;;;;;10.38;6.70;;;12.20;82.50;;;;;;5032690;28;20558;-47
2022/05/11 03:03:16;;;;;;;7.35;5.78;;;12.20;82.40;;;;;;5033729;28;20030;-51
2022/05/11 03:05:47;;;;;;;9.43;6.10;;;12.20;82.50;;;;;;5033022;28;20064;-47
2022/05/11 03:08:14;;;;;;;14.85;6.53;;;12.10;82.60;;;;;;5033016;28;20407;-49
2022/05/11 03:10:41;;;;;;;10.52;5.82;;;12.10;82.60;;;;;;5032580;28;20032;-49
2022/05/11 03:13:11;;;;;;;11.48;7.25;;;12.10;82.80;;;;;;5032454;28;20033;-50
2022/05/11 03:15:38;;;;;;;;;;;12.10;82.80;;;;;;5033206;28;20071;-46
2022/05/11 03:18:05;;;;;;;14.98;6.43;;;12.10;82.80;;;;;;5041769;28;19971;-45
2022/05/11 03:20:31;;;;;;;10.10;5.75;;;12.10;82.80;;;;;;5063315;28;20025;-48
2022/05/11 03:23:00;;;;;;;9.20;5.60;;;12.10;83.00;;;;;;5048422;28;20163;-46
2022/05/11 03:25:26;;;;;;;11.88;7.07;;;12.10;83.10;;;;;;5032453;28;20490;-45
2022/05/11 03:27:53;;;;;;;9.02;6.80;;;12.10;83.10;;;;;;5033366;28;20098;-46
2022/05/11 03:30:23;;;;;;;9.13;6.65;;;12.10;83.00;;;;;;5032066;28;20236;-49
2022/05/11 03:35:37;;;;;;;10.05;6.28;;;12.20;83.30;;;;;;5034314;28;20365;-46
2022/05/11 03:38:05;;;;;;;9.60;6.85;;;12.10;83.40;;;;;;5032802;28;20060;-47
2022/05/11 03:40:38;;;;;;;10.57;6.47;;;12.10;83.30;;;;;;5033592;28;20045;-45
2022/05/11 03:43:05;;;;;;;9.60;6.07;;;12.20;83.30;;;;;;5032960;28;20040;-46
2022/05/11 03:45:32;;;;;;;10.35;6.88;;;12.20;83.40;;;;;;5033105;28;20040;-46
2022/05/11 03:47:58;;;;;;;9.98;6.28;;;12.20;83.50;;;;;;5024009;28;20037;-48
2022/05/11 03:50:26;;;;;;;12.88;6.68;;;12.20;83.50;;;;;;5052334;28;20342;-46
2022/05/11 03:52:54;;;;;;;13.52;6.57;;;12.20;83.50;;;;;;5047101;28;20033;-47
2022/05/11 03:55:23;;;;;;;9.80;6.30;;;12.30;83.50;;;;;;5007674;28;20065;-46
2022/05/11 03:57:49;;;;;;;11.20;6.55;;;12.30;83.30;;;;;;5013061;28;20046;-45
2022/05/11 04:00:20;;;;;;;9.35;6.78;;;12.40;83.20;;;;;;5012202;28;20488;-45
2022/05/11 04:02:48;;;;;;;9.88;6.40;;;12.40;83.10;;;;;;4995205;28;20060;-46
2022/05/11 04:05:16;;;;;;;8.98;6.85;;;12.40;83.10;;;;;;5011078;28;20025;-48
2022/05/11 04:07:43;;;;;;;15.07;6.78;;;12.40;83.00;;;;;;5011553;28;20383;-46
2022/05/11 04:10:14;;;;;;;14.27;7.80;;;12.50;82.80;;;;;;5013801;28;20034;-48
2022/05/11 04:12:41;;;;;;;10.25;6.32;;;12.50;82.90;;;;;;5027926;28;20351;-45
2022/05/11 04:15:10;;;;;;;7.63;5.88;;;12.50;83.00;;;;;;5013400;28;20133;-46
2022/05/11 04:17:38;;;;;;;10.18;5.95;;;12.60;83.00;;;;;;5012125;28;20025;-46
2022/05/11 04:20:05;;;;;;;10.70;6.30;;;12.70;82.90;;;;;;5012912;28;20084;-46
2022/05/11 04:22:32;;;;;;;7.75;6.25;;;12.70;82.80;;;;;;5033872;28;20037;-48
2022/05/11 04:24:59;;;;;;;9.65;6.22;;;12.70;82.80;;;;;;5012945;28;20013;-46
2022/05/11 04:27:26;;;;;;;12.52;6.65;;;12.70;82.60;;;;;;5011480;28;20546;-46
2022/05/11 04:29:54;;;;;;;7.95;6.40;;;12.80;82.50;;;;;;5012762;28;20057;-46
2022/05/11 04:32:21;;;;;;;8.25;6.15;;;12.80;82.50;;;;;;5011573;28;20454;-51
2022/05/11 04:34:54;;;;;;;9.10;6.00;;;12.90;82.60;;;;;;4998336;28;20030;-47
2022/05/11 04:37:20;;;;;;;10.10;6.78;;;12.90;82.40;;;;;;5011717;28;20069;-47
2022/05/11 04:39:47;;;;;;;9.95;6.38;;;12.90;82.40;;;;;;5013481;28;20025;-48
2022/05/11 04:42:14;;;;;;;8.82;5.80;;;12.90;82.30;;;;;;5012026;28;20037;-46
2022/05/11 04:44:41;;;;;;;10.35;7.25;;;12.90;82.40;;;;;;5006394;28;20034;-46
2022/05/11 04:47:13;;;;;;;9.20;6.13;;;13.00;82.30;;;;;;5003256;28;20474;-46
2022/05/11 04:49:41;;;;;;;7.63;6.53;;;13.10;82.30;;;;;;5041502;28;20038;-45
2022/05/11 04:52:25;;;;;;;8.32;6.22;;;13.10;82.00;;;;;;5036862;28;20041;-45
2022/05/11 04:54:51;;;;;;;7.28;6.35;;;13.10;82.10;;;;;;5028544;28;20060;-46
2022/05/11 04:57:21;;;;;;;7.80;6.22;;;13.10;82.00;;;;;;5015910;28;20041;-47
2022/05/11 04:59:49;;;;;;;;;;;13.20;82.20;;;;;;5040562;28;20022;-50
2022/05/11 05:02:23;;;;;;;8.55;6.03;;;13.20;82.10;;;;;;5033293;28;19940;-45
2022/05/11 05:04:51;;;;;;;10.15;7.28;;;13.20;82.00;;;;;;5033167;28;20029;-47
2022/05/11 05:07:21;;;;;;;8.15;6.50;;;13.20;82.00;;;;;;5033981;28;20031;-47
2022/05/11 05:09:50;;;;;;;12.40;7.10;;;13.30;82.10;;;;;;5035357;28;20032;-45
2022/05/11 05:12:17;;;;;;;9.10;6.63;;;13.30;81.90;;;;;;5032796;28;20404;-49
2022/05/11 05:14:44;;;;;;;9.32;6.47;;;13.40;82.00;;;;;;5029419;28;20087;-48
2022/05/11 05:17:13;;;;;;;14.15;6.80;;;13.30;82.00;;;;;;5019183;28;20061;-46
2022/05/11 05:19:45;;;;;;;9.30;5.88;;;13.30;82.00;;;;;;5025869;28;20021;-45
2022/05/11 05:22:13;;;;;;;8.95;6.18;;;13.30;82.30;;;;;;5032099;28;20084;-47
2022/05/11 05:24:41;;;;;;;8.60;6.18;;;13.40;82.60;;;;;;5047990;28;20021;-47
2022/05/11 05:27:13;;;;;;;8.75;5.72;;;13.40;82.20;;;;;;5038151;28;20043;-46
2022/05/11 05:32:25;;;;;;;9.40;6.63;;;13.40;82.10;;;;;;5034023;28;20370;-47
2022/05/11 05:34:57;;;;;;;10.77;6.72;;;13.40;82.20;;;;;;5034847;28;20044;-45
2022/05/11 05:37:24;;;;;;;11.88;6.72;;;13.40;81.90;;;;;;5034593;28;20042;-50
2022/05/11 05:39:51;;;;;;;7.20;6.40;;;13.40;82.00;;;;;;5031150;28;20028;-46
2022/05/11 05:42:24;;;;;;;10.20;6.25;;;13.40;82.00;;;;;;5034570;28;20029;-51
2022/05/11 05:44:50;;;;;;;13.23;7.55;;;13.40;82.10;;;;;;5028762;28;20032;-47
2022/05/11 05:47:20;;;;;;;10.60;6.68;;;13.40;82.00;;;;;;5034372;28;20045;-49
2022/05/11 05:49:51;;;;;;;15.95;7.32;;;13.40;82.00;;;;;;5034038;28;20033;-46
2022/05/11 05:52:23;;;;;;;12.13;6.90;;;13.50;82.00;;;;;;5035785;28;20041;-48
2022/05/11 05:54:52;;;;;;;10.55;6.20;;;13.50;82.10;;;;;;5046580;28;20068;-47
2022/05/11 05:57:18;;;;;;;9.07;6.30;;;13.50;82.10;;;;;;5055206;28;20045;-46
2022/05/11 05:59:46;;;;;;;10.77;6.57;;;13.50;82.10;;;;;;5036793;28;20100;-48
2022/05/11 06:02:14;;;;;;;10.73;6.75;;;13.50;82.00;;;;;;5033519;28;20105;-47
2022/05/11 06:04:43;;;;;;;9.57;6.68;;;13.60;82.00;;;;;;5035355;28;20458;-47
2022/05/11 06:07:11;;;;;;;10.95;6.38;;;13.60;82.00;;;;;;5036138;28;20453;-46
2022/05/11 06:09:39;;;;;;;9.00;7.80;;;13.60;82.00;;;;;;5019562;28;20106;-46
2022/05/11 06:12:11;;;;;;;10.95;7.47;;;13.60;82.00;;;;;;5033835;28;20053;-45
2022/05/11 06:14:39;;;;;;;9.75;8.15;;;13.60;81.90;;;;;;5034845;28;20092;-49
2022/05/11 06:17:24;;;;;;;10.48;6.82;;;13.70;82.00;;;;;;5014558;28;20461;-46
2022/05/11 06:19:52;;;;;;;15.85;7.45;;;13.60;82.10;;;;;;5032514;28;20214;-51
2022/05/11 06:22:19;;;;;;;12.05;8.27;;;13.70;82.20;;;;;;5047608;28;20438;-45
2022/05/11 06:24:47;;;;;;;12.70;7.30;;;13.80;82.10;;;;;;5049072;28;20127;-49
2022/05/11 06:27:19;;;;;;;11.18;7.82;;;13.90;82.20;;;;;;5045412;28;20025;-46
2022/05/11 06:29:56;;;;;;;14.10;7.72;;;13.90;81.90;;;;;;5036365;28;20036;-46
2022/05/11 06:32:24;;;;;;;11.32;6.80;;;13.90;81.90;;;;;;5040400;28;20048;-50
2022/05/11 06:34:52;;;;;;;10.40;6.82;;;14.00;81.70;;;;;;5045683;28;20528;-45
2022/05/11 06:37:20;;;;;;;16.35;7.68;;;14.10;81.80;;;;;;5059466;28;20029;-45
2022/05/11 06:39:50;;;;;;;10.38;7.53;;;14.10;81.70;;;;;;5047753;28;20022;-46
2022/05/11 06:42:17;;;;;;;11.32;7.63;;;14.20;81.50;;;;;;5029960;28;20038;-45
2022/05/11 06:44:47;;;;;;;13.10;7.25;;;14.30;81.70;;;;;;5022093;28;20036;-45
2022/05/11 06:47:16;;;;;;;;;;;14.40;81.40;;;;;;5034728;28;20040;-48
2022/05/11 06:49:47;;;;;;;12.52;7.72;;;14.50;81.30;;;;;;5035095;28;19999;-45
2022/05/11 06:52:13;;;;;;;13.23;8.63;;;14.60;81.20;;;;;;5032371;28;20037;-46
2022/05/11 07:00:11;;;;;;;12.57;7.28;;;14.90;80.50;;;;;;5008675;28;20036;-48
2022/05/11 07:02:42;;;;;;;16.08;8.05;;;15.10;80.20;;;;;;5007924;28;20141;-48
2022/05/11 07:05:10;;;;;;;11.27;7.47;;;15.20;79.50;;;;;;4993119;28;20044;-46
2022/05/11 07:07:37;;;;;;;9.45;7.15;;;15.20;79.40;;;;;;5010879;28;20036;-46
2022/05/11 07:10:05;;;;;;;13.05;7.65;;;15.30;79.00;;;;;;4996491;28;20053;-46
2022/05/11 07:12:46;;;;;;;11.75;8.40;;;15.20;78.90;;;;;;4998488;28;20040;-46
2022/05/11 07:15:16;;;;;;;12.02;7.68;;;15.30;79.30;;;;;;5008528;28;20033;-46
2022/05/11 07:17:57;;;;;;;11.80;7.95;;;15.20;79.50;;;;;;5010091;28;20378;-46
2022/05/11 07:20:36;;;;;;;11.70;7.53;;;15.30;79.00;;;;;;5009814;28;20044;-45
2022/05/11 07:23:05;;;;;;;11.60;7.00;;;15.30;79.00;;;;;;5011412;28;20026;-48
2022/05/11 07:25:32;;;;;;;12.07;7.47;;;15.40;79.20;;;;;;4996880;28;20038;-46
2022/05/11 07:28:00;;;;;;;13.65;7.03;;;15.40;78.50;;;;;;4993182;28;20638;-46
2022/05/11 07:30:32;;;;;;;13.88;7.50;;;15.40;78.30;;;;;;5010709;28;20470;-46
2022/05/11 07:32:59;;;;;;;10.93;7.97;;;15.40;78.70;;;;;;4993521;28;20120;-46
2022/05/11 07:35:27;;;;;;;11.95;7.15;;;15.40;78.70;;;;;;5010170;28;20034;-49
2022/05/11 07:37:52;;;;;;;11.20;6.82;;;15.30;78.40;;;;;;5008531;28;20030;-45
2022/05/11 07:40:21;;;;;;;10.95;6.82;;;15.40;79.10;;;;;;5009108;28;20403;-47
2022/05/11 07:42:50;;;;;;;11.80;6.88;;;15.40;79.00;;;;;;5010055;28;20037;-46
2022/05/11 07:45:18;;;;;;;10.40;7.07;;;15.40;79.00;;;;;;5010080;28;20030;-46
2022/05/11 07:47:45;;;;;;;11.25;6.78;;;15.50;78.80;;;;;;5009350;28;20100;-46
2022/05/11 07:50:13;;;;;;;9.48;6.43;;;15.60;78.40;;;;;;5011971;28;20026;-45
2022/05/11 07:52:44;;;;;;;11.23;7.60;;;15.70;78.40;;;;;;5008575;28;20030;-46
2022/05/11 07:55:10;;;;;;;10.82;7.65;;;15.90;78.10;;;;;;4992819;28;20054;-47
2022/05/11 08:00:24;;;;;;;12.48;6.80;;;16.10;77.50;;;;;;5009789;28;20029;-47
2022/05/11 08:02:51;;;;;;;11.48;6.88;;;16.20;77.10;;;;;;5011219;28;20474;-45
2022/05/11 08:05:19;;;;;;;13.05;7.35;;;16.20;77.00;;;;;;5008386;28;20431;-51
2022/05/11 08:07:56;;;;;;;9.13;6.93;;;16.40;76.60;;;;;;5009458;28;20041;-47
2022/05/11 08:10:30;;;;;;;10.38;6.88;;;16.50;76.80;;;;;;5008719;28;20601;-48
2022/05/11 08:12:57;;;;;;;9.10;5.95;;;16.50;75.60;;;;;;5008509;28;20455;-46
2022/05/11 08:15:27;;;;;;;16.05;7.20;;;16.60;75.80;;;;;;5008710;28;20049;-48
2022/05/11 08:17:53;;;;;;;10.68;6.60;;;16.70;76.00;;;;;;5009246;28;20844;-47
2022/05/11 08:20:22;;;;;;;10.73;6.40;;;16.90;75.90;;;;;;5008580;28;20042;-51
2022/05/11 08:22:51;;;;;;;13.30;6.75;;;17.00;75.20;;;;;;5009665;28;20469;-48
2022/05/11 08:25:21;;;;;;;13.88;6.80;;;17.10;74.00;;;;;;5009607;28;20041;-46
2022/05/11 08:27:49;;;;;;;12.88;6.82;;;17.20;73.90;;;;;;5009323;28;20025;-46
2022/05/11 08:33:22;;;;;;;9.82;6.07;;;17.30;73.40;;;;;;5009858;28;20029;-50
2022/05/11 08:36:00;;;;;;;8.98;5.53;;;17.20;72.40;;;;;;5003757;28;20034;-49
2022/05/11 08:38:32;;;;;;;9.95;5.57;;;17.20;73.00;;;;;;5009108;28;20149;-51
2022/05/11 08:41:38;;;;;;;10.90;5.82;;;17.40;72.60;;;;;;5009167;28;20042;-47
2022/05/11 08:44:33;;;;;;;9.77;5.38;;;17.60;72.90;;;;;;5009672;28;20022;-48
2022/05/11 08:47:12;;;;;;;8.95;4.80;;;17.90;70.00;;;;;;4994708;28;20045;-47
2022/05/11 08:50:09;;;;;;;9.85;5.07;;;18.10;69.90;;;;;;5009593;28;20120;-50
2022/05/11 08:52:58;;;;;;;9.23;4.90;;;18.50;69.30;;;;;;5012540;28;20042;-52
2022/05/11 08:55:33;;;;;;;9.52;5.10;;;18.90;68.80;;;;;;5031224;28;20061;-47
2022/05/11 08:58:06;;;;;;;8.65;4.95;;;19.00;66.90;;;;;;5033610;28;20257;-47
2022/05/11 09:00:34;;;;;;;11.85;5.07;;;18.90;66.40;;;;;;5032587;28;20421;-46
2022/05/11 09:03:34;;;;;;;8.90;4.85;;;19.20;65.00;;;;;;5017754;28;20029;-49
2022/05/11 09:06:20;;;;;;;;;;;19.40;65.00;;;;;;5033287;28;20103;-47
2022/05/11 09:08:47;;;;;;;9.80;4.57;;;19.70;63.80;;;;;;5031373;28;19992;-48
2022/05/11 09:11:21;;;;;;;8.88;4.25;;;20.00;63.80;;;;;;5032588;28;20037;-46
2022/05/11 09:13:48;;;;;;;10.13;5.53;;;20.30;61.90;;;;;;5032979;28;20029;-46
2022/05/11 09:16:23;;;;;;;8.68;4.82;;;20.20;61.80;;;;;;5034211;28;20040;-48
2022/05/11 09:18:50;;;;;;;9.48;5.10;;;20.20;62.70;;;;;;5030703;28;20045;-46
2022/05/11 09:21:32;;;;;;;6.63;4.70;;;20.20;62.10;;;;;;5044094;28;20087;-47
2022/05/11 09:24:16;;;;;;;14.75;6.75;;;20.20;60.70;;;;;;5032584;28;20044;-46
2022/05/11 09:26:49;;;;;;;14.40;5.75;;;20.10;60.60;;;;;;5025262;28;20017;-48
2022/05/11 09:29:31;;;;;;;13.70;6.15;;;20.10;62.20;;;;;;5034298;28;20033;-50
2022/05/11 09:32:26;;;;;;;10.65;5.22;;;20.20;62.80;;;;;;5033201;28;20452;-46
2022/05/11 09:34:53;;;;;;;13.55;6.30;;;20.30;62.90;;;;;;5033095;28;20421;-46
2022/05/11 09:38:01;;;;;;;9.93;7.43;;;19.90;62.60;;;;;;5044140;28;20029;-50
2022/05/11 09:40:30;;;;;;;14.52;7.68;;;19.90;63.70;;;;;;5021971;28;20049;-49
2022/05/11 09:42:59;;;;;;;;;;;20.10;64.60;;;;;;5032892;28;20030;-48
2022/05/11 09:45:49;;;;;;;12.52;6.63;;;20.00;65.40;;;;;;5050355;28;19913;-47
2022/05/11 09:48:25;;;;;;;10.68;6.85;;;19.90;65.60;;;;;;5031868;28;20064;-53
2022/05/11 09:50:56;;;;;;;9.45;5.95;;;19.70;65.30;;;;;;5047435;28;20064;-48
2022/05/11 09:53:38;;;;;;;10.98;7.13;;;19.60;65.40;;;;;;5031709;28;20049;-50
2022/05/11 09:56:29;;;;;;;15.10;6.72;;;19.40;65.40;;;;;;5031808;28;20099;-48
2022/05/11 09:58:56;;;;;;;11.70;7.05;;;19.20;66.40;;;;;;5028491;28;20052;-46
2022/05/11 10:01:29;;;;;;;12.32;6.13;;;19.10;65.60;;;;;;5029374;28;20040;-47
2022/05/11 10:04:04;;;;;;;9.57;5.57;;;19.30;67.70;;;;;;5030878;28;20029;-46
2022/05/11 10:06:38;;;;;;;9.85;5.90;;;19.40;67.40;;;;;;5026388;28;20029;-53
2022/05/11 10:09:06;;;;;;;17.33;6.00;;;19.40;66.10;;;;;;5031656;28;20029;-48
2022/05/11 10:11:40;;;;;;;12.60;6.10;;;19.50;64.80;;;;;;5010701;28;20030;-46
2022/05/11 10:23:05;;;;;;;13.82;4.80;;;21.40;60.00;;;;;;5030522;28;20040;-47
2022/05/11 10:26:15;;;;;;;12.60;5.05;;;21.50;58.80;;;;;;5031629;28;20036;-47
2022/05/11 10:29:03;;;;;;;9.25;5.13;;;21.50;59.20;;;;;;5023685;28;20044;-50
2022/05/11 10:31:39;;;;;;;12.98;4.47;;;21.60;58.40;;;;;;5029260;28;20029;-47
2022/05/11 10:34:07;;;;;;;8.88;4.05;;;22.00;57.90;;;;;;5029063;28;20040;-48
2022/05/11 10:36:54;;;;;;;10.15;4.78;;;22.20;56.70;;;;;;5027074;28;20053;-47
2022/05/11 10:40:10;;;;;;;9.18;4.38;;;22.30;55.50;;;;;;5028518;28;20133;-50
2022/05/11 10:43:13;;;;;;;13.00;4.57;;;21.80;55.70;;;;;;5022166;28;20033;-48
2022/05/11 10:45:53;;;;;;;9.95;4.82;;;21.80;56.90;;;;;;5028775;28;20112;-48
2022/05/11 10:48:56;;;;;;;8.05;3.67;;;22.10;54.80;;;;;;5030506;28;20033;-47
2022/05/11 10:51:45;;;;;;;11.45;4.00;;;22.40;54.10;;;;;;5029729;28;20025;-50
2022/05/11 10:54:29;;;;;;;7.07;3.35;;;22.50;53.50;;;;;;5031517;28;20029;-48
2022/05/11 10:57:32;;;;;;;7.20;3.25;;;22.60;54.20;;;;;;5028213;28;20029;-50
2022/05/11 11:00:18;;;;;;;10.23;4.07;;;22.90;50.40;;;;;;5032602;28;20045;-48
2022/05/11 11:03:09;;;;;;;10.52;3.47;;;22.40;51.50;;;;;;5031563;28;20041;-48
2022/05/11 11:09:04;;;;;;;8.02;2.42;;;21.80;54.70;;;;;;5032306;28;20120;-50
2022/05/11 11:11:49;;;;;;;10.65;4.28;;;22.20;53.50;;;;;;5032953;28;20087;-47
2022/05/11 11:14:26;;;;;;;9.38;2.75;;;22.50;52.10;;;;;;5029510;28;20093;-46
2022/05/11 11:16:52;;;;;;;11.77;3.45;;;22.30;51.90;;;;;;5031011;28;20021;-46
2022/05/11 11:19:19;;;;;;;11.40;3.03;;;21.60;51.80;;;;;;5029872;28;20124;-46
2022/05/11 11:21:47;;;;;;;9.73;2.90;;;21.30;53.30;;;;;;5015526;28;20104;-46
2022/05/11 11:24:25;;;;;;;9.30;3.10;;;20.90;54.20;;;;;;5030538;28;20047;-47
2022/05/11 11:26:57;;;;;;;8.38;2.67;;;20.50;54.80;;;;;;5030033;28;20030;-47
2022/05/11 11:30:04;;;;;;;6.65;2.85;;;20.30;55.00;;;;;;5030597;28;20113;-47
2022/05/11 11:32:31;;;;;;;10.70;2.70;;;19.90;56.60;;;;;;5009323;28;20071;-47
2022/05/11 11:35:24;;;;;;;9.00;2.63;;;19.90;56.80;;;;;;5030538;28;20751;-47
2022/05/11 11:38:21;;;;;;;10.05;3.05;;;20.00;57.30;;;;;;5029491;28;20037;-47
2022/05/11 11:41:18;;;;;;;10.95;2.90;;;20.60;57.40;;;;;;5034475;28;20036;-47
2022/05/11 11:43:48;;;;;;;12.77;3.03;;;20.70;54.30;;;;;;5032189;28;20040;-46
2022/05/11 11:46:46;;;;;;;7.63;2.38;;;20.40;53.30;;;;;;5032155;28;20038;-46
2022/05/11 11:49:30;;;;;;;6.50;1.80;;;20.50;52.50;;;;;;5008097;28;20041;-48
2022/05/11 11:52:05;;;;;;;10.18;3.22;;;20.60;53.80;;;;;;5029782;28;20116;-46
2022/05/11 11:54:37;;;;;;;12.27;3.53;;;21.10;53.30;;;;;;5032079;28;20354;-48
2022/05/11 11:57:06;;;;;;;7.93;2.40;;;21.30;51.60;;;;;;5017381;28;20025;-46
2022/05/11 11:59:40;;;;;;;8.05;2.85;;;21.40;52.70;;;;;;5010294;28;20316;-47
2022/05/11 12:02:11;;;;;;;12.00;3.45;;;21.70;51.30;;;;;;5014671;28;20022;-50
2022/05/11 12:04:44;;;;;;;17.10;3.72;;;21.90;50.20;;;;;;5010303;28;20465;-47
2022/05/11 12:16:18;;;;;;;10.93;2.03;;;22.70;49.50;;;;;;5009731;28;20486;-48
2022/05/11 12:18:47;;;;;;;8.95;3.03;;;22.50;48.10;;;;;;5009883;28;20029;-46
2022/05/11 12:21:32;;;;;;;8.23;2.30;;;22.40;48.40;;;;;;5009926;28;20028;-48
2022/05/11 12:24:02;;;;;;;9.73;2.50;;;22.20;49.40;;;;;;5012640;28;20034;-46
2022/05/11 12:26:41;;;;;;;8.93;2.30;;;21.90;50.30;;;;;;5008457;28;20712;-46
2022/05/11 12:32:21;;;;;;;8.38;2.22;;;21.30;48.90;;;;;;5009568;28;20111;-53
2022/05/11 12:34:48;;;;;;;8.55;2.60;;;21.10;51.00;;;;;;5009301;28;20039;-50
2022/05/11 12:37:35;;;;;;;6.63;2.92;;;21.10;51.40;;;;;;5009050;28;20453;-49
2022/05/11 12:40:13;;;;;;;8.18;2.00;;;20.80;52.10;;;;;;5007717;28;20026;-48
2022/05/11 12:42:51;;;;;;;7.88;2.30;;;20.60;52.00;;;;;;5009230;28;20029;-48
2022/05/11 12:45:19;;;;;;;7.60;2.35;;;20.40;53.10;;;;;;5006008;28;20018;-47
2022/05/11 12:47:58;;;;;;;14.88;3.30;;;20.20;52.60;;;;;;5009514;28;20101;-46
2022/05/11 12:50:33;;;;;;;7.75;2.17;;;20.00;54.00;;;;;;5010327;28;20041;-49
2022/05/11 12:53:22;;;;;;;6.63;2.78;;;20.40;55.40;;;;;;4991453;28;20022;-51
2022/05/11 12:55:54;;;;;;;9.38;2.45;;;20.50;55.20;;;;;;5007308;28;20079;-49
2022/05/11 12:58:26;;;;;;;13.02;2.75;;;20.20;54.50;;;;;;5008607;28;20387;-47
2022/05/11 13:01:03;;;;;;;10.90;2.60;;;20.10;54.60;;;;;;4992418;28;20045;-47
2022/05/11 13:03:38;;;;;;;10.80;2.88;;;20.20;55.60;;;;;;5008438;28;20038;-46
2022/05/11 13:06:43;;;;;;;8.63;2.30;;;20.00;54.80;;;;;;5011083;28;20132;-47
2022/05/11 13:09:42;;;;;;;9.15;3.03;;;19.90;55.10;;;;;;5001944;28;20042;-48
2022/05/11 13:12:15;;;;;;;8.10;2.15;;;19.80;54.60;;;;;;5019144;28;20088;-47
2022/05/11 13:14:56;;;;;;;7.57;2.25;;;19.90;56.10;;;;;;5015629;28;20025;-49
2022/05/11 13:17:34;;;;;;;7.72;2.42;;;19.90;55.40;;;;;;5002231;28;20031;-46
2022/05/11 13:20:12;;;;;;;11.93;2.28;;;20.00;55.10;;;;;;5005291;28;20963;-50
2022/05/11 13:22:40;;;;;;;9.10;2.90;;;20.20;55.40;;;;;;5000403;28;20045;-47
2022/05/11 13:25:10;;;;;;;7.32;1.90;;;20.40;53.70;;;;;;5001218;28;20018;-48
2022/05/11 13:27:43;;;;;;;9.45;2.15;;;20.40;53.30;;;;;;5006933;28;20036;-49
2022/05/11 13:30:15;;;;;;;7.47;2.03;;;20.40;53.00;;;;;;5007298;28;20037;-47
2022/05/11 13:32:50;;;;;;;10.57;2.45;;;20.40;53.60;;;;;;5002289;28;20474;-46
2022/05/11 13:35:32;;;;;;;14.07;4.07;;;20.30;53.00;;;;;;5005334;28;20115;-46
2022/05/11 13:38:09;;;;;;;14.52;4.32;;;20.00;60.10;;;;;;5010000;28;20030;-48
2022/05/11 13:40:40;;;;;;;10.07;3.83;;;19.60;62.60;;;;;;5010172;28;20034;-46
2022/05/11 13:43:35;;;;;;;16.92;5.22;;;19.10;64.10;;;;;;5011354;28;20045;-48
2022/05/11 13:46:13;;;;;;;17.73;4.88;;;18.70;65.20;;;;;;5010496;28;20033;-46
2022/05/11 13:48:48;;;;;;;18.15;5.65;;;18.60;66.10;;;;;;4995559;28;20037;-46
2022/05/11 13:51:38;;;;;;;18.50;4.80;;;18.80;66.00;;;;;;5009720;28;20387;-50
2022/05/11 13:54:23;;;;;;;;;;;18.50;66.40;;;;;;5008427;28;20037;-47
2022/05/11 13:57:08;;;;;;;14.35;3.40;;;18.20;65.60;;;;;;5029575;28;19936;-48
2022/05/11 13:59:49;;;;;;;11.13;4.35;;;18.10;67.00;;;;;;5028612;28;20402;-46
2022/05/11 14:02:18;;;;;;;12.15;3.45;;;18.40;64.60;;;;;;5035254;28;20040;-47